West Union, Iowa
Current Conditions -  °F | °C
As of 5:15 AM on Friday 28 Nov 2014 (Local Time) from KOLZ Reporting Station
Overcast Overcast  
Wind Chill: -1°   Ceiling: 12000
Heat Index: 16°   Visibility: 10mi
Dew Point:   Wind: 20mph
Humidity: 68%   Direction: 140°SE
Pressure: 30.1"   Gusts: 26mph
Location:  42.96°N, 91.81°W
Report Text: KOLZ 281115Z AUTO 14017G23KT 10SM OVC120 M09/M14 A3010 RMK AO2
Loading
Personal Weather Stations






























Interactive Weather Map New forecast layout! Learn more

10-Day Weather Forecast

Advertisements
Track Severe Weather on mobile